Station: Douglas River  

  Atmospheric Gas Attenuation - ITU Rec 676-11   ----------------- dB/100km -----------------
Date Time Temp RH % AH g/m3 Dew Point Wind Direction Speed kph Gust kph Barometer mB Rainfall Since 9am 24GHz 47GHz 76GHz 122GHz 134GHz 241GHz
08/05 12:00 28.5 41 11.46 14 22 33 1013 0 24.8 26.0 43.1 113.5 114.3 395.9
08/05 11:50 28.4 43 11.95 14.6 17 20 1013.1 0 25.9 26.8 44.9 118.4 120.3 417.0
08/05 11:40 28 42 11.42 13.9 17 22 1013.3 0 24.8 26.1 43.2 113.8 114.6 396.8
08/05 11:30 27.6 43 11.44 13.9 22 32 1013.6 0 24.8 26.3 43.5 114.6 115.4 399.7
08/05 11:20 27.9 43 11.63 14.2 24 28 1013.7 0 25.2 26.5 44.1 116.0 117.3 406.3
08/05 11:10 27.2 44 11.45 13.9 22 28 1013.9 0 24.9 26.4 43.8 115.3 116.1 402.2
08/05 11:00 27.2 44 11.45 13.9 22 33 1014.2 0 24.9 26.5 43.8 115.3 116.2 402.3
08/05 10:50 26.6 43 10.82 13.3 24 28 1014.1 0 23.6 25.7 41.8 110.0 109.4 378.7
08/05 10:40 26.1 44 10.77 12.9 26 30 1014.2 0 23.5 25.8 41.9 110.2 109.5 378.9
08/05 10:30 26 44 10.71 12.8 22 30 1014.4 0 23.4 25.7 41.7 109.8 109.0 376.9
08/05 10:20 25.6 46 10.95 13.1 24 30 1014.4 0 23.9 26.2 42.8 112.7 112.4 389.0
08/05 10:10 25.1 45 10.42 12.3 26 30 1014.5 0 22.9 25.5 41.1 108.2 106.7 368.9
08/05 10:00 25 47 10.82 12.9 24 32 1014.7 0 23.7 26.2 42.7 112.3 111.7 386.5
08/05 09:50 24.7 46 10.41 12.3 28 32 1014.5 0 22.9 25.6 41.3 108.6 107.1 370.3
08/05 09:40 24.2 49 10.78 12.8 24 30 1014.4 0 23.7 26.3 42.9 112.9 112.3 388.5
08/05 09:30 23.7 50 10.69 12.7 26 33 1014.6 0 23.5 26.3 42.9 112.8 111.9 387.1
08/05 09:20 23.3 52 10.87 12.9 24 30 1014.5 0 23.9 26.7 43.8 115.1 114.8 396.9
08/05 09:10 22.9 52 10.63 12.5 30 35 1014.4 0 23.4 26.5 43.1 113.3 112.3 388.3
08/05 09:00 22.4 57 11.32 13.5 22 30 1014.4 0 24.9 27.7 46.0 121.1 121.8 421.5
08/05 08:50 21.7 59 11.25 13.3 19 22 1014.3 0 24.8 27.8 46.1 121.4 122.0 422.1
08/05 08:40 21.1 61 11.24 13.3 20 26 1014.2 0 24.8 28.0 46.4 122.3 122.8 424.8
08/05 08:30 20.4 65 11.5 13.6 19 24 1014.2 0 25.4 28.6 47.9 126.1 127.4 440.6
08/05 08:20 19.7 69 11.72 13.9 15 20 1014.1 0 25.9 29.2 49.2 129.7 131.5 454.9
08/05 08:10 19 72 11.73 13.8 13 15 1014.1 0 26.0 29.5 49.7 131.0 132.8 459.5
08/05 08:00 18.1 78 12.05 14.2 7 11 1014 0 26.7 30.3 51.6 136.1 138.8 480.4
08/05 07:50 17 83 12.01 14.1 6 7 1013.9 0 26.7 30.6 52.2 137.6 140.3 485.3
08/05 07:40 16.5 81 11.37 13.2 6 6 1013.8 0 25.4 29.7 49.8 131.1 132.1 456.8
08/05 07:30 16.2 83 11.45 13.3 4 7 1013.8 0 25.6 29.9 50.3 132.5 133.8 462.5
08/05 07:20 15.9 83 11.24 13 2 6 1013.6 0 25.1 29.7 49.6 130.6 131.3 453.9
08/05 07:10 15.7 84 11.24 13 4 6 1013.5 0 25.1 29.7 49.7 130.9 131.7 455.0
08/05 07:00 15.1 86 11.09 12.8 9 9 1013.6 0 24.9 29.7 49.4 130.2 130.6 451.2
08/05 06:50 15.2 85 11.03 12.7 9 9 1013.5 0 24.7 29.5 49.1 129.3 129.6 447.6
08/05 06:40 15.2 85 11.03 12.7 6 6 1013.3 0 24.7 29.5 49.1 129.3 129.5 447.5
08/05 06:30 15.6 85 11.3 13.1 0 6 1013.4 0 25.3 29.9 50.0 131.8 132.7 458.5
08/05 06:20 15.7 85 11.37 13.2 4 6 1013.2 0 25.4 29.9 50.3 132.4 133.5 461.3
08/05 06:10 15.8 84 11.31 13.1 0 0 1013.2 0 25.3 29.8 49.9 131.5 132.4 457.8
08/05 06:00 15.9 83 11.24 13 4 9 1013.3 0 25.1 29.6 49.6 130.5 131.3 453.8
08/05 05:50 15.9 83 11.24 13 7 7 1013.2 0 25.1 29.6 49.6 130.5 131.3 453.7
08/05 05:40 16 83 11.31 13.1 7 9 1013.2 0 25.3 29.7 49.8 131.2 132.1 456.6
08/05 05:30 16.1 82 11.24 13 7 9 1013.3 0 25.1 29.6 49.4 130.2 130.9 452.6
08/05 05:20 16.4 81 11.3 13.1 7 9 1013 0 25.2 29.6 49.5 130.3 131.2 453.7
08/05 05:10 16.5 80 11.23 13 7 7 1013 0 25.1 29.4 49.1 129.4 130.1 449.7
08/05 05:00 16.7 80 11.37 13.2 6 7 1013.1 0 25.4 29.6 49.6 130.7 131.7 455.4
08/05 04:50 16.8 80 11.44 13.3 7 7 1012.9 0 25.5 29.7 49.8 131.3 132.5 458.1
08/05 04:40 16.8 80 11.44 13.3 7 7 1012.9 0 25.5 29.7 49.8 131.3 132.5 458.1
08/05 04:30 16.5 81 11.37 13.2 9 11 1012.8 0 25.4 29.6 49.7 131.0 132.0 456.4
08/05 04:20 16.6 81 11.44 13.3 11 13 1012.8 0 25.5 29.7 50.0 131.6 132.8 459.3
08/05 04:10 16.5 82 11.51 13.4 9 11 1012.8 0 25.7 29.9 50.3 132.5 134.0 463.3
08/05 04:00 16.5 82 11.51 13.4 11 13 1012.9 0 25.7 29.9 50.3 132.6 134.0 463.3
08/05 03:50 16.5 82 11.51 13.4 11 11 1012.8 0 25.7 29.9 50.3 132.5 134.0 463.3
08/05 03:40 16.5 82 11.51 13.4 9 9 1012.9 0 25.7 29.9 50.3 132.6 134.0 463.3
08/05 03:30 16.5 83 11.65 13.6 11 13 1013.1 0 26.0 30.1 50.9 134.2 136.0 470.3
08/05 03:20 16.4 83 11.58 13.5 11 13 1013 0 25.8 30.1 50.7 133.5 135.2 467.4
08/05 03:10 16.6 82 11.58 13.5 9 11 1013.1 0 25.8 30.0 50.6 133.2 134.8 466.2
08/05 03:00 16.7 83 11.79 13.8 9 9 1013.2 0 26.3 30.3 51.4 135.5 137.6 476.0
08/05 02:50 16.5 84 11.79 13.8 9 9 1013.2 0 26.3 30.4 51.5 135.8 138.0 477.2
08/05 02:40 16.6 84 11.87 13.9 9 9 1013.2 0 26.4 30.5 51.8 136.6 138.9 480.6
08/05 02:30 16.6 83 11.72 13.7 9 11 1013.4 0 26.1 30.2 51.2 134.9 136.8 473.2
08/05 02:20 16.7 84 11.94 14 11 11 1013.3 0 26.6 30.6 52.1 137.2 139.8 483.5
08/05 02:10 16.4 85 11.86 13.9 11 11 1013.3 0 26.4 30.6 51.9 136.8 139.2 481.4
08/05 02:00 16.6 85 12.01 14.1 9 11 1013.5 0 26.7 30.8 52.4 138.2 141.0 487.7
08/05 01:50 16.8 84 12.01 14.1 11 11 1013.4 0 26.7 30.7 52.3 137.8 140.6 486.4
08/05 01:40 17 83 12.01 14.1 11 11 1013.6 0 26.7 30.6 52.2 137.5 140.2 485.2
08/05 01:30 17 83 12.01 14.1 11 11 1013.8 0 26.7 30.6 52.2 137.5 140.3 485.3
08/05 01:20 17.1 82 11.94 14 11 11 1013.8 0 26.5 30.5 51.8 136.6 139.1 481.2
08/05 01:10 17.2 82 12.01 14.1 9 11 1013.7 0 26.7 30.5 52.1 137.2 139.9 484.0
08/05 01:00 17.4 81 12 14.1 9 11 1013.9 0 26.7 30.5 51.9 136.7 139.4 482.3
08/05 00:50 17.5 80 11.93 14 11 11 1013.9 0 26.5 30.3 51.5 135.8 138.2 478.2
08/05 00:40 17.6 80 12 14.1 11 11 1014 0 26.6 30.4 51.8 136.4 139.1 481.1
08/05 00:30 17.7 80 12.07 14.2 11 11 1014.2 0 26.8 30.5 52.0 137.0 139.9 484.0
08/05 00:20 17.7 80 12.07 14.2 11 11 1014.1 0 26.8 30.5 52.0 137.0 139.9 483.9
08/05 00:10 17.8 80 12.14 14.3 11 11 1014.2 0 26.9 30.6 52.2 137.7 140.7 486.8
08/05 00:00 17.7 81 12.22 14.4 11 13 1014.4 0 27.1 30.8 52.7 138.8 142.0 491.4
07/05 23:50 17.9 80 12.21 14.4 11 13 1014.3 0 27.1 30.7 52.5 138.3 141.5 489.6
07/05 23:40 18 80 12.29 14.5 11 13 1014.3 0 27.2 30.8 52.8 139.0 142.4 492.9
07/05 23:30 18 80 12.29 14.5 11 13 1014.3 0 27.2 30.8 52.8 139.0 142.4 492.9
07/05 23:20 18.3 79 12.35 14.6 11 13 1014.3 0 27.3 30.8 52.8 139.2 142.7 494.0
07/05 23:10 18.3 79 12.35 14.6 11 11 1014.3 0 27.3 30.8 52.8 139.2 142.7 494.0
07/05 23:00 18.4 79 12.42 14.7 11 13 1014.4 0 27.5 30.9 53.0 139.8 143.5 496.8
07/05 22:50 18.3 80 12.51 14.8 11 11 1014.2 0 27.7 31.0 53.5 141.0 145.0 501.8
07/05 22:40 18.2 82 12.74 15.1 11 11 1014.2 0 28.2 31.5 54.6 143.9 148.4 513.9
07/05 22:30 18.2 82 12.74 15.1 11 13 1014.4 0 28.2 31.5 54.6 143.9 148.5 514.0
07/05 22:20 18.5 80 12.66 15 11 13 1014.4 0 28.0 31.2 54.0 142.4 146.7 508.0
07/05 22:10 18.9 78 12.64 15 11 11 1014.5 0 27.9 31.1 53.7 141.5 145.7 504.5
07/05 22:00 19.2 77 12.7 15.1 9 9 1014.6 0 28.0 31.1 53.7 141.6 146.0 505.5
07/05 21:50 19.3 77 12.77 15.2 9 9 1014.4 0 28.2 31.1 53.9 142.2 146.8 508.2
07/05 21:40 19.3 76 12.6 15 9 9 1014.4 0 27.8 30.9 53.2 140.3 144.4 499.9
07/05 21:30 19.3 76 12.6 15 11 11 1014.5 0 27.8 30.9 53.2 140.3 144.4 499.9
07/05 21:20 19.3 77 12.77 15.2 11 11 1014.3 0 28.2 31.1 53.9 142.2 146.7 508.2
07/05 21:10 19.3 77 12.77 15.2 11 11 1014.2 0 28.2 31.1 53.9 142.2 146.7 508.1
07/05 21:00 19.6 75 12.66 15 9 11 1014.3 0 27.9 30.8 53.3 140.4 144.6 500.8
07/05 20:50 20.2 72 12.59 15 9 9 1014.2 0 27.7 30.5 52.5 138.5 142.5 493.5
07/05 20:40 20.3 71 12.49 14.9 9 9 1014.1 0 27.5 30.3 52.0 137.2 140.9 488.0
07/05 20:30 20.7 69 12.42 14.8 9 9 1014.1 0 27.3 30.0 51.5 135.7 139.3 482.2
07/05 20:20 20.8 68 12.31 14.7 9 9 1013.9 0 27.1 29.8 51.0 134.3 137.6 476.3
07/05 20:10 21.1 67 12.34 14.7 9 9 1013.7 0 27.1 29.8 50.9 134.1 137.4 475.8
07/05 20:00 21.4 65 12.19 14.6 9 11 1013.7 0 26.8 29.4 50.1 131.9 134.9 466.9
07/05 19:50 21.7 63 12.02 14.4 9 9 1013.4 0 26.4 29.0 49.2 129.6 132.0 457.1
07/05 19:40 21.9 62 11.96 14.3 9 9 1013.3 0 26.3 28.9 48.8 128.6 130.9 453.1
07/05 19:30 21.9 62 11.96 14.3 9 11 1013.3 0 26.3 28.9 48.8 128.6 130.9 453.1

Last Refresh: 08-May-2026 12:07:38

Bureau of Meteorology